sensor_id;sensor_type;location;lat;lon;timestamp;pressure;altitude;pressure_sealevel;temperature;humidity
41636;BME280;27623;51.966;4.602;2023-07-20T00:01:19;65288.75;;;18.85;100.00
41636;BME280;27623;51.966;4.602;2023-07-20T00:03:44;65297.91;;;18.92;100.00
41636;BME280;27623;51.966;4.602;2023-07-20T00:06:26;65254.84;;;18.80;100.00
41636;BME280;27623;51.966;4.602;2023-07-20T00:08:53;65296.88;;;18.83;100.00
41636;BME280;27623;51.966;4.602;2023-07-20T00:11:19;65303.31;;;18.87;100.00
41636;BME280;27623;51.966;4.602;2023-07-20T00:13:49;65255.56;;;18.83;100.00
41636;BME280;27623;51.966;4.602;2023-07-20T00:16:14;65282.88;;;18.82;100.00
41636;BME280;27623;51.966;4.602;2023-07-20T00:18:42;65266.13;;;18.79;100.00
41636;BME280;27623;51.966;4.602;2023-07-20T00:21:07;65301.22;;;18.71;100.00
41636;BME280;27623;51.966;4.602;2023-07-20T00:23:33;65266.78;;;18.65;100.00
41636;BME280;27623;51.966;4.602;2023-07-20T00:25:58;65267.13;;;18.70;100.00
41636;BME280;27623;51.966;4.602;2023-07-20T00:28:24;65239.13;;;18.61;100.00
41636;BME280;27623;51.966;4.602;2023-07-20T00:30:49;65231.59;;;18.57;100.00
41636;BME280;27623;51.966;4.602;2023-07-20T00:33:19;65232.13;;;18.57;100.00
41636;BME280;27623;51.966;4.602;2023-07-20T00:35:45;65254.63;;;18.61;100.00
41636;BME280;27623;51.966;4.602;2023-07-20T00:38:10;65254.09;;;18.61;100.00
41636;BME280;27623;51.966;4.602;2023-07-20T00:40:40;65250.25;;;18.50;100.00
41636;BME280;27623;51.966;4.602;2023-07-20T00:43:06;65259.06;;;18.58;100.00
41636;BME280;27623;51.966;4.602;2023-07-20T00:45:32;65264.06;;;18.55;100.00
41636;BME280;27623;51.966;4.602;2023-07-20T00:47:58;65241.97;;;18.49;100.00
41636;BME280;27623;51.966;4.602;2023-07-20T00:50:25;65234.44;;;18.45;100.00
41636;BME280;27623;51.966;4.602;2023-07-20T00:52:51;65237.41;;;18.43;100.00
41636;BME280;27623;51.966;4.602;2023-07-20T00:55:19;65241.81;;;18.47;100.00
41636;BME280;27623;51.966;4.602;2023-07-20T00:57:45;65226.22;;;18.37;100.00
41636;BME280;27623;51.966;4.602;2023-07-20T01:00:11;65224.56;;;18.36;100.00
41636;BME280;27623;51.966;4.602;2023-07-20T01:02:36;65232.47;;;18.38;100.00
41636;BME280;27623;51.966;4.602;2023-07-20T01:05:02;65211.81;;;18.38;100.00
41636;BME280;27623;51.966;4.602;2023-07-20T01:08:15;65191.59;;;18.29;100.00
41636;BME280;27623;51.966;4.602;2023-07-20T01:10:25;65198.88;;;18.22;100.00
41636;BME280;27623;51.966;4.602;2023-07-20T01:12:57;65191.16;;;18.14;100.00
41636;BME280;27623;51.966;4.602;2023-07-20T01:15:22;65193.53;;;18.19;100.00
41636;BME280;27623;51.966;4.602;2023-07-20T01:17:48;65158.47;;;18.03;100.00
41636;BME280;27623;51.966;4.602;2023-07-20T01:20:15;65165.88;;;17.98;100.00
41636;BME280;27623;51.966;4.602;2023-07-20T01:30:56;65151.31;;;17.97;100.00
41636;BME280;27623;51.966;4.602;2023-07-20T01:33:25;65189.28;;;17.94;100.00
41636;BME280;27623;51.966;4.602;2023-07-20T01:35:56;65178.22;;;17.98;100.00
41636;BME280;27623;51.966;4.602;2023-07-20T01:38:25;65172.69;;;18.00;100.00
41636;BME280;27623;51.966;4.602;2023-07-20T01:40:53;65169.59;;;17.92;100.00
41636;BME280;27623;51.966;4.602;2023-07-20T01:43:18;65191.31;;;17.93;100.00
41636;BME280;27623;51.966;4.602;2023-07-20T01:45:44;65142.09;;;17.74;100.00
41636;BME280;27623;51.966;4.602;2023-07-20T01:48:10;65154.41;;;17.80;100.00
41636;BME280;27623;51.966;4.602;2023-07-20T01:50:35;65188.84;;;17.79;100.00
41636;BME280;27623;51.966;4.602;2023-07-20T01:53:01;65167.28;;;17.80;100.00
41636;BME280;27623;51.966;4.602;2023-07-20T01:55:27;65134.47;;;17.83;100.00
41636;BME280;27623;51.966;4.602;2023-07-20T01:57:55;65129.53;;;17.79;100.00
41636;BME280;27623;51.966;4.602;2023-07-20T02:00:20;65176.66;;;17.82;100.00
41636;BME280;27623;51.966;4.602;2023-07-20T02:02:49;65156.97;;;17.80;100.00
41636;BME280;27623;51.966;4.602;2023-07-20T02:05:15;65181.47;;;17.77;100.00
41636;BME280;27623;51.966;4.602;2023-07-20T02:07:41;65152.25;;;17.71;100.00
41636;BME280;27623;51.966;4.602;2023-07-20T02:10:06;65123.75;;;17.62;100.00
41636;BME280;27623;51.966;4.602;2023-07-20T02:12:32;65134.28;;;17.57;100.00
41636;BME280;27623;51.966;4.602;2023-07-20T02:14:57;65135.84;;;17.42;100.00
41636;BME280;27623;51.966;4.602;2023-07-20T02:17:22;65090.03;;;17.42;100.00
41636;BME280;27623;51.966;4.602;2023-07-20T02:19:53;65122.16;;;17.53;100.00
41636;BME280;27623;51.966;4.602;2023-07-20T02:22:20;65130.22;;;17.58;100.00
41636;BME280;27623;51.966;4.602;2023-07-20T02:24:45;65132.84;;;17.51;100.00
41636;BME280;27623;51.966;4.602;2023-07-20T02:27:11;65099.59;;;17.39;100.00
41636;BME280;27623;51.966;4.602;2023-07-20T02:29:36;65088.69;;;17.46;100.00
41636;BME280;27623;51.966;4.602;2023-07-20T02:32:02;65116.28;;;17.50;100.00
41636;BME280;27623;51.966;4.602;2023-07-20T02:34:28;65090.19;;;17.45;100.00
41636;BME280;27623;51.966;4.602;2023-07-20T02:36:55;65114.31;;;17.43;100.00
41636;BME280;27623;51.966;4.602;2023-07-20T02:39:22;65083.59;;;17.39;100.00
41636;BME280;27623;51.966;4.602;2023-07-20T02:41:48;65100.91;;;17.36;100.00
41636;BME280;27623;51.966;4.602;2023-07-20T02:44:18;65118.56;;;17.38;100.00
41636;BME280;27623;51.966;4.602;2023-07-20T02:46:43;65090.41;;;17.40;100.00
41636;BME280;27623;51.966;4.602;2023-07-20T02:49:08;65051.59;;;17.38;100.00
41636;BME280;27623;51.966;4.602;2023-07-20T02:51:34;65131.81;;;17.43;100.00
41636;BME280;27623;51.966;4.602;2023-07-20T02:54:00;65135.06;;;17.46;100.00
41636;BME280;27623;51.966;4.602;2023-07-20T02:56:25;65087.31;;;17.33;100.00
41636;BME280;27623;51.966;4.602;2023-07-20T02:58:51;65037.38;;;17.17;100.00
41636;BME280;27623;51.966;4.602;2023-07-20T03:01:16;65098.91;;;17.36;100.00
41636;BME280;27623;51.966;4.602;2023-07-20T03:03:42;65116.34;;;17.43;100.00
41636;BME280;27623;51.966;4.602;2023-07-20T03:06:11;65072.13;;;17.21;100.00
41636;BME280;27623;51.966;4.602;2023-07-20T03:08:36;65084.47;;;17.21;100.00
41636;BME280;27623;51.966;4.602;2023-07-20T03:11:02;65072.34;;;17.16;100.00
41636;BME280;27623;51.966;4.602;2023-07-20T03:13:27;65109.28;;;17.22;100.00
41636;BME280;27623;51.966;4.602;2023-07-20T03:15:53;65102.13;;;17.23;100.00
41636;BME280;27623;51.966;4.602;2023-07-20T03:18:18;65048.50;;;17.06;100.00
41636;BME280;27623;51.966;4.602;2023-07-20T03:20:44;65068.34;;;17.10;100.00
41636;BME280;27623;51.966;4.602;2023-07-20T03:23:10;65036.78;;;17.00;100.00
41636;BME280;27623;51.966;4.602;2023-07-20T03:25:35;65055.22;;;16.91;100.00
41636;BME280;27623;51.966;4.602;2023-07-20T03:28:02;65095.41;;;17.07;100.00
41636;BME280;27623;51.966;4.602;2023-07-20T03:30:28;65069.22;;;17.16;100.00
41636;BME280;27623;51.966;4.602;2023-07-20T03:32:53;65078.00;;;17.24;100.00
41636;BME280;27623;51.966;4.602;2023-07-20T03:35:18;65092.56;;;17.18;100.00
41636;BME280;27623;51.966;4.602;2023-07-20T03:37:46;65085.22;;;17.16;100.00
41636;BME280;27623;51.966;4.602;2023-07-20T03:40:14;65063.19;;;17.10;100.00
41636;BME280;27623;51.966;4.602;2023-07-20T03:42:40;65023.00;;;16.95;100.00
41636;BME280;27623;51.966;4.602;2023-07-20T03:45:06;65047.84;;;16.96;100.00
41636;BME280;27623;51.966;4.602;2023-07-20T03:47:31;65056.66;;;16.97;100.00
41636;BME280;27623;51.966;4.602;2023-07-20T03:49:57;65029.69;;;16.87;100.00
41636;BME280;27623;51.966;4.602;2023-07-20T03:52:22;65027.16;;;16.79;100.00
41636;BME280;27623;51.966;4.602;2023-07-20T03:54:48;65000.91;;;16.72;100.00
41636;BME280;27623;51.966;4.602;2023-07-20T03:57:13;65039.31;;;16.76;100.00
41636;BME280;27623;51.966;4.602;2023-07-20T03:59:39;65020.38;;;16.78;100.00
41636;BME280;27623;51.966;4.602;2023-07-20T04:02:04;65022.97;;;16.71;100.00
41636;BME280;27623;51.966;4.602;2023-07-20T04:04:30;65014.38;;;16.65;100.00
41636;BME280;27623;51.966;4.602;2023-07-20T04:06:56;65026.69;;;16.65;100.00
41636;BME280;27623;51.966;4.602;2023-07-20T04:09:21;65035.84;;;16.71;100.00
41636;BME280;27623;51.966;4.602;2023-07-20T04:11:47;65018.34;;;16.78;100.00
41636;BME280;27623;51.966;4.602;2023-07-20T04:14:12;64999.28;;;16.70;100.00
41636;BME280;27623;51.966;4.602;2023-07-20T04:16:39;65020.75;;;16.76;100.00
41636;BME280;27623;51.966;4.602;2023-07-20T04:19:05;65025.47;;;16.85;100.00
41636;BME280;27623;51.966;4.602;2023-07-20T04:21:30;65041.25;;;16.90;100.00
41636;BME280;27623;51.966;4.602;2023-07-20T04:23:58;65087.13;;;17.06;100.00
41636;BME280;27623;51.966;4.602;2023-07-20T04:26:26;65055.72;;;16.99;100.00
41636;BME280;27623;51.966;4.602;2023-07-20T04:28:51;65086.91;;;17.11;100.00
41636;BME280;27623;51.966;4.602;2023-07-20T04:31:18;65039.13;;;17.05;100.00
41636;BME280;27623;51.966;4.602;2023-07-20T04:33:43;65024.44;;;17.01;100.00
41636;BME280;27623;51.966;4.602;2023-07-20T04:36:08;65046.69;;;17.02;100.00
41636;BME280;27623;51.966;4.602;2023-07-20T04:38:34;65048.34;;;17.04;100.00
41636;BME280;27623;51.966;4.602;2023-07-20T04:40:59;65045.06;;;17.01;100.00
41636;BME280;27623;51.966;4.602;2023-07-20T04:43:25;65083.44;;;17.05;100.00
41636;BME280;27623;51.966;4.602;2023-07-20T04:45:51;65077.25;;;16.97;100.00
41636;BME280;27623;51.966;4.602;2023-07-20T04:48:19;65027.63;;;16.94;100.00
41636;BME280;27623;51.966;4.602;2023-07-20T04:50:45;65056.81;;;17.00;100.00
41636;BME280;27623;51.966;4.602;2023-07-20T04:53:11;65072.03;;;17.04;100.00
41636;BME280;27623;51.966;4.602;2023-07-20T04:55:38;65095.63;;;17.02;100.00
41636;BME280;27623;51.966;4.602;2023-07-20T04:58:04;65057.16;;;17.05;100.00
41636;BME280;27623;51.966;4.602;2023-07-20T05:00:30;65079.38;;;17.06;100.00
41636;BME280;27623;51.966;4.602;2023-07-20T05:02:56;65071.19;;;16.99;100.00
41636;BME280;27623;51.966;4.602;2023-07-20T05:05:21;65035.50;;;16.97;100.00
41636;BME280;27623;51.966;4.602;2023-07-20T05:07:47;65069.63;;;17.07;100.00
41636;BME280;27623;51.966;4.602;2023-07-20T05:10:13;65079.16;;;17.18;100.00
41636;BME280;27623;51.966;4.602;2023-07-20T05:12:38;65079.16;;;17.18;100.00
41636;BME280;27623;51.966;4.602;2023-07-20T05:15:07;65097.28;;;17.28;100.00
41636;BME280;27623;51.966;4.602;2023-07-20T05:17:32;65087.53;;;17.28;100.00
41636;BME280;27623;51.966;4.602;2023-07-20T05:19:58;65095.22;;;17.35;100.00
41636;BME280;27623;51.966;4.602;2023-07-20T05:22:23;65123.00;;;17.35;100.00
41636;BME280;27623;51.966;4.602;2023-07-20T05:24:50;65101.47;;;17.36;100.00
41636;BME280;27623;51.966;4.602;2023-07-20T05:27:15;65127.22;;;17.36;100.00
41636;BME280;27623;51.966;4.602;2023-07-20T05:29:45;65099.81;;;17.35;100.00
41636;BME280;27623;51.966;4.602;2023-07-20T05:32:10;65094.66;;;17.35;100.00
41636;BME280;27623;51.966;4.602;2023-07-20T05:34:36;65088.41;;;17.34;100.00
41636;BME280;27623;51.966;4.602;2023-07-20T05:37:04;65122.63;;;17.37;100.00
41636;BME280;27623;51.966;4.602;2023-07-20T05:39:29;65083.66;;;17.32;100.00
41636;BME280;27623;51.966;4.602;2023-07-20T05:41:54;65130.19;;;17.34;100.00
41636;BME280;27623;51.966;4.602;2023-07-20T05:44:20;65143.63;;;17.35;100.00
41636;BME280;27623;51.966;4.602;2023-07-20T05:46:45;65135.50;;;17.37;100.00
41636;BME280;27623;51.966;4.602;2023-07-20T05:49:11;65121.88;;;17.41;100.00
41636;BME280;27623;51.966;4.602;2023-07-20T05:51:36;65102.53;;;17.44;100.00
41636;BME280;27623;51.966;4.602;2023-07-20T05:54:01;65128.44;;;17.47;100.00
41636;BME280;27623;51.966;4.602;2023-07-20T05:56:27;65116.88;;;17.43;100.00
41636;BME280;27623;51.966;4.602;2023-07-20T05:58:52;65093.34;;;17.38;100.00
41636;BME280;27623;51.966;4.602;2023-07-20T06:01:19;65125.75;;;17.37;100.00
41636;BME280;27623;51.966;4.602;2023-07-20T06:03:47;65127.03;;;17.41;100.00
41636;BME280;27623;51.966;4.602;2023-07-20T06:06:12;65133.44;;;17.44;100.00
41636;BME280;27623;51.966;4.602;2023-07-20T06:08:38;65125.09;;;17.51;100.00
41636;BME280;27623;51.966;4.602;2023-07-20T06:11:03;65148.81;;;17.59;100.00
41636;BME280;27623;51.966;4.602;2023-07-20T06:13:29;65135.00;;;17.60;100.00
41636;BME280;27623;51.966;4.602;2023-07-20T06:15:54;65157.13;;;17.52;100.00
41636;BME280;27623;51.966;4.602;2023-07-20T06:18:22;65114.22;;;17.58;100.00
41636;BME280;27623;51.966;4.602;2023-07-20T06:20:51;65110.91;;;17.55;100.00
41636;BME280;27623;51.966;4.602;2023-07-20T06:23:18;65153.63;;;17.53;100.00
41636;BME280;27623;51.966;4.602;2023-07-20T06:25:44;65136.50;;;17.52;100.00
41636;BME280;27623;51.966;4.602;2023-07-20T06:28:09;65146.66;;;17.49;100.00
41636;BME280;27623;51.966;4.602;2023-07-20T06:30:35;65149.41;;;17.52;100.00
41636;BME280;27623;51.966;4.602;2023-07-20T06:33:02;65132.50;;;17.46;100.00
41636;BME280;27623;51.966;4.602;2023-07-20T06:35:28;65105.41;;;17.49;100.00
41636;BME280;27623;51.966;4.602;2023-07-20T06:37:53;65116.34;;;17.43;100.00
41636;BME280;27623;51.966;4.602;2023-07-20T06:40:18;65128.44;;;17.47;100.00
41636;BME280;27623;51.966;4.602;2023-07-20T06:42:44;65142.75;;;17.53;100.00
41636;BME280;27623;51.966;4.602;2023-07-20T06:45:09;65120.84;;;17.57;100.00
41636;BME280;27623;51.966;4.602;2023-07-20T06:47:37;65152.88;;;17.58;100.00
41636;BME280;27623;51.966;4.602;2023-07-20T06:50:03;65128.63;;;17.49;100.00
41636;BME280;27623;51.966;4.602;2023-07-20T06:52:28;65134.31;;;17.50;100.00
41636;BME280;27623;51.966;4.602;2023-07-20T06:54:56;65104.56;;;17.44;100.00
41636;BME280;27623;51.966;4.602;2023-07-20T06:57:21;65152.72;;;17.48;100.00
41636;BME280;27623;51.966;4.602;2023-07-20T06:59:47;65160.81;;;17.53;100.00
41636;BME280;27623;51.966;4.602;2023-07-20T07:02:12;65101.16;;;17.55;100.00
41636;BME280;27623;51.966;4.602;2023-07-20T07:04:38;65140.91;;;17.56;100.00
41636;BME280;27623;51.966;4.602;2023-07-20T07:07:06;65144.41;;;17.55;100.00
41636;BME280;27623;51.966;4.602;2023-07-20T07:09:31;65152.28;;;17.64;100.00
41636;BME280;27623;51.966;4.602;2023-07-20T07:11:59;65152.28;;;17.64;100.00
41636;BME280;27623;51.966;4.602;2023-07-20T07:14:27;65190.34;;;17.71;100.00
41636;BME280;27623;51.966;4.602;2023-07-20T07:16:52;65147.63;;;17.72;100.00
41636;BME280;27623;51.966;4.602;2023-07-20T07:19:18;65189.78;;;17.77;100.00
41636;BME280;27623;51.966;4.602;2023-07-20T07:21:43;65189.94;;;17.80;100.00
41636;BME280;27623;51.966;4.602;2023-07-20T07:24:08;65166.00;;;17.77;100.00
41636;BME280;27623;51.966;4.602;2023-07-20T07:26:37;65143.19;;;17.75;100.00
41636;BME280;27623;51.966;4.602;2023-07-20T07:29:03;65137.66;;;17.77;100.00
41636;BME280;27623;51.966;4.602;2023-07-20T07:31:29;65151.97;;;17.83;100.00
41636;BME280;27623;51.966;4.602;2023-07-20T07:33:55;65167.78;;;17.88;100.00
41636;BME280;27623;51.966;4.602;2023-07-20T07:36:21;65175.84;;;17.93;100.00
41636;BME280;27623;51.966;4.602;2023-07-20T07:38:46;65199.41;;;17.98;100.00
41636;BME280;27623;51.966;4.602;2023-07-20T07:41:11;65183.72;;;18.03;96.14
41636;BME280;27623;51.966;4.602;2023-07-20T07:43:37;65224.22;;;18.07;97.12
41636;BME280;27623;51.966;4.602;2023-07-20T07:46:03;65172.63;;;18.07;99.42
41636;BME280;27623;51.966;4.602;2023-07-20T07:48:33;65233.53;;;18.15;100.00
41636;BME280;27623;51.966;4.602;2023-07-20T07:50:58;65230.41;;;18.15;97.41
41636;BME280;27623;51.966;4.602;2023-07-20T07:53:23;65221.19;;;18.16;95.30
41636;BME280;27623;51.966;4.602;2023-07-20T07:55:51;65219.28;;;18.26;95.37
41636;BME280;27623;51.966;4.602;2023-07-20T07:58:17;65221.63;;;18.31;97.90
41636;BME280;27623;51.966;4.602;2023-07-20T08:00:42;65269.31;;;18.41;98.48
41636;BME280;27623;51.966;4.602;2023-07-20T08:03:09;65261.03;;;18.41;95.83
41636;BME280;27623;51.966;4.602;2023-07-20T08:05:35;65272.25;;;18.46;94.80
41636;BME280;27623;51.966;4.602;2023-07-20T08:08:02;65268.84;;;18.58;92.49
41636;BME280;27623;51.966;4.602;2023-07-20T08:10:29;65292.22;;;18.67;92.01
41636;BME280;27623;51.966;4.602;2023-07-20T08:12:54;65278.75;;;18.67;90.36
41636;BME280;27623;51.966;4.602;2023-07-20T08:15:20;65271.38;;;18.65;88.94
41636;BME280;27623;51.966;4.602;2023-07-20T08:17:45;65275.94;;;18.71;88.48
41636;BME280;27623;51.966;4.602;2023-07-20T08:20:13;65308.03;;;18.72;85.96
41636;BME280;27623;51.966;4.602;2023-07-20T08:22:38;65271.50;;;18.74;87.80
41636;BME280;27623;51.966;4.602;2023-07-20T08:25:05;65297.81;;;18.82;89.99
41636;BME280;27623;51.966;4.602;2023-07-20T08:27:31;65319.97;;;18.81;87.50
41636;BME280;27623;51.966;4.602;2023-07-20T08:29:56;65291.38;;;18.78;87.56
41636;BME280;27623;51.966;4.602;2023-07-20T08:32:22;65317.16;;;18.85;91.26
41636;BME280;27623;51.966;4.602;2023-07-20T08:34:47;65290.34;;;18.94;92.34
41636;BME280;27623;51.966;4.602;2023-07-20T08:37:13;65285.13;;;19.01;91.83
41636;BME280;27623;51.966;4.602;2023-07-20T08:39:38;65335.91;;;18.96;87.28
41636;BME280;27623;51.966;4.602;2023-07-20T08:42:04;65323.72;;;18.99;86.00
41636;BME280;27623;51.966;4.602;2023-07-20T08:44:35;65310.41;;;19.01;83.89
41636;BME280;27623;51.966;4.602;2023-07-20T08:47:02;65342.00;;;18.94;81.90
41636;BME280;27623;51.966;4.602;2023-07-20T08:49:30;65309.22;;;18.90;85.36
41636;BME280;27623;51.966;4.602;2023-07-20T08:51:59;65328.22;;;18.88;87.00
41636;BME280;27623;51.966;4.602;2023-07-20T08:54:28;65303.03;;;18.75;86.99
41636;BME280;27623;51.966;4.602;2023-07-20T08:56:56;65294.91;;;18.77;89.46
41636;BME280;27623;51.966;4.602;2023-07-20T08:59:23;65326.31;;;18.68;91.62
41636;BME280;27623;51.966;4.602;2023-07-20T09:01:51;65283.69;;;18.71;93.83
41636;BME280;27623;51.966;4.602;2023-07-20T09:04:17;65301.00;;;18.75;94.47
41636;BME280;27623;51.966;4.602;2023-07-20T09:06:43;65307.06;;;18.81;94.81
41636;BME280;27623;51.966;4.602;2023-07-20T09:09:08;65287.28;;;18.86;94.79
41636;BME280;27623;51.966;4.602;2023-07-20T09:11:34;65304.97;;;18.88;92.65
41636;BME280;27623;51.966;4.602;2023-07-20T09:14:06;65301.47;;;18.90;90.53
41636;BME280;27623;51.966;4.602;2023-07-20T09:16:34;65309.22;;;18.90;90.12
41636;BME280;27623;51.966;4.602;2023-07-20T09:19:12;65350.63;;;19.00;87.33
41636;BME280;27623;51.966;4.602;2023-07-20T09:21:37;65358.41;;;19.23;85.31
41636;BME280;27623;51.966;4.602;2023-07-20T09:24:03;65388.31;;;19.53;85.38
41636;BME280;27623;51.966;4.602;2023-07-20T09:26:28;65431.31;;;19.79;84.75
41636;BME280;27623;51.966;4.602;2023-07-20T09:28:53;65501.34;;;20.05;85.48
41636;BME280;27623;51.966;4.602;2023-07-20T09:31:22;65486.59;;;20.25;85.53
41636;BME280;27623;51.966;4.602;2023-07-20T09:33:49;65515.16;;;20.42;85.04
41636;BME280;27623;51.966;4.602;2023-07-20T09:36:16;65498.78;;;20.53;82.46
41636;BME280;27623;51.966;4.602;2023-07-20T09:38:42;65502.31;;;20.51;78.88
41636;BME280;27623;51.966;4.602;2023-07-20T09:41:13;65554.16;;;20.44;73.77
41636;BME280;27623;51.966;4.602;2023-07-20T09:43:38;65516.91;;;20.29;73.24
41636;BME280;27623;51.966;4.602;2023-07-20T09:46:05;65536.25;;;20.40;76.02
41636;BME280;27623;51.966;4.602;2023-07-20T09:48:32;65536.03;;;20.44;76.78
41636;BME280;27623;51.966;4.602;2023-07-20T09:50:57;65548.03;;;20.46;74.92
41636;BME280;27623;51.966;4.602;2023-07-20T09:53:24;65552.34;;;20.64;73.10
41636;BME280;27623;51.966;4.602;2023-07-20T09:55:52;65603.09;;;20.80;72.86
41636;BME280;27623;51.966;4.602;2023-07-20T09:58:18;65542.25;;;20.76;73.08
41636;BME280;27623;51.966;4.602;2023-07-20T10:00:45;65570.69;;;20.83;75.39
41636;BME280;27623;51.966;4.602;2023-07-20T10:03:14;65597.66;;;20.91;70.12
41636;BME280;27623;51.966;4.602;2023-07-20T10:05:52;65605.41;;;21.15;68.19
41636;BME280;27623;51.966;4.602;2023-07-20T10:08:18;65617.06;;;21.19;69.29
41636;BME280;27623;51.966;4.602;2023-07-20T10:10:47;65637.47;;;21.38;70.88
41636;BME280;27623;51.966;4.602;2023-07-20T10:13:18;65684.97;;;21.50;68.77
41636;BME280;27623;51.966;4.602;2023-07-20T10:15:50;65692.63;;;21.65;65.99
41636;BME280;27623;51.966;4.602;2023-07-20T10:21:15;65672.84;;;21.39;65.14
41636;BME280;27623;51.966;4.602;2023-07-20T10:23:42;65590.63;;;21.35;65.90
41636;BME280;27623;51.966;4.602;2023-07-20T10:26:07;65560.00;;;20.78;63.72
41636;BME280;27623;51.966;4.602;2023-07-20T10:28:34;65557.25;;;20.76;64.52
41636;BME280;27623;51.966;4.602;2023-07-20T10:30:59;65603.50;;;20.78;65.74
41636;BME280;27623;51.966;4.602;2023-07-20T10:33:25;65535.03;;;20.77;67.54
41636;BME280;27623;51.966;4.602;2023-07-20T10:36:00;65567.63;;;20.76;69.85
41636;BME280;27623;51.966;4.602;2023-07-20T10:41:20;65601.56;;;20.88;67.91
41636;BME280;27623;51.966;4.602;2023-07-20T10:43:47;65594.28;;;20.96;64.59
41636;BME280;27623;51.966;4.602;2023-07-20T10:46:13;65579.72;;;20.63;62.84
41636;BME280;27623;51.966;4.602;2023-07-20T10:49:07;65562.69;;;20.88;65.08
41636;BME280;27623;51.966;4.602;2023-07-20T10:51:49;65593.41;;;20.90;64.61
41636;BME280;27623;51.966;4.602;2023-07-20T10:56:49;65615.50;;;21.27;66.72
41636;BME280;27623;51.966;4.602;2023-07-20T11:01:56;65610.69;;;21.01;65.24
41636;BME280;27623;51.966;4.602;2023-07-20T11:04:41;65588.81;;;21.07;65.46
41636;BME280;27623;51.966;4.602;2023-07-20T11:07:07;65620.97;;;21.15;63.43
41636;BME280;27623;51.966;4.602;2023-07-20T11:09:36;65638.50;;;21.22;61.88
41636;BME280;27623;51.966;4.602;2023-07-20T11:14:41;65554.41;;;21.04;62.41
41636;BME280;27623;51.966;4.602;2023-07-20T11:17:14;65640.81;;;21.10;66.56
41636;BME280;27623;51.966;4.602;2023-07-20T11:19:41;65598.47;;;21.04;66.29
41636;BME280;27623;51.966;4.602;2023-07-20T11:22:06;65574.28;;;20.99;67.37
41636;BME280;27623;51.966;4.602;2023-07-20T11:24:33;65607.00;;;21.00;68.30
41636;BME280;27623;51.966;4.602;2023-07-20T11:26:59;65577.94;;;21.00;69.25
41636;BME280;27623;51.966;4.602;2023-07-20T11:29:25;65598.69;;;21.00;68.55
41636;BME280;27623;51.966;4.602;2023-07-20T11:31:51;65612.03;;;20.98;68.63
41636;BME280;27623;51.966;4.602;2023-07-20T11:34:18;65581.31;;;21.19;67.61
41636;BME280;27623;51.966;4.602;2023-07-20T11:36:48;65651.50;;;21.63;65.28
41636;BME280;27623;51.966;4.602;2023-07-20T11:39:18;65684.06;;;21.92;64.08
41636;BME280;27623;51.966;4.602;2023-07-20T11:41:48;65716.59;;;22.06;64.46
41636;BME280;27623;51.966;4.602;2023-07-20T11:44:18;65769.03;;;22.30;65.17
41636;BME280;27623;51.966;4.602;2023-07-20T11:46:44;65768.63;;;22.15;55.91
41636;BME280;27623;51.966;4.602;2023-07-20T11:49:12;65780.94;;;22.29;53.52
41636;BME280;27623;51.966;4.602;2023-07-20T11:51:39;65838.88;;;22.66;55.73
41636;BME280;27623;51.966;4.602;2023-07-20T11:54:06;65877.50;;;23.08;56.10
41636;BME280;27623;51.966;4.602;2023-07-20T11:56:32;65891.25;;;23.28;54.09
41636;BME280;27623;51.966;4.602;2023-07-20T11:58:59;65865.78;;;23.12;52.72
41636;BME280;27623;51.966;4.602;2023-07-20T12:01:27;65948.00;;;23.68;52.22
41636;BME280;27623;51.966;4.602;2023-07-20T12:04:03;66056.16;;;24.15;52.03
41636;BME280;27623;51.966;4.602;2023-07-20T12:06:29;66036.25;;;24.37;52.39
41636;BME280;27623;51.966;4.602;2023-07-20T12:08:56;65992.81;;;24.26;53.47
41636;BME280;27623;51.966;4.602;2023-07-20T12:11:38;66008.97;;;24.10;54.91
41636;BME280;27623;51.966;4.602;2023-07-20T12:14:07;65996.47;;;23.93;55.03
41636;BME280;27623;51.966;4.602;2023-07-20T12:16:34;65992.91;;;23.95;52.41
41636;BME280;27623;51.966;4.602;2023-07-20T12:19:05;66028.19;;;24.25;54.35
41636;BME280;27623;51.966;4.602;2023-07-20T12:21:31;66073.16;;;24.52;50.42
41636;BME280;27623;51.966;4.602;2023-07-20T12:23:58;66096.34;;;24.40;48.52
41636;BME280;27623;51.966;4.602;2023-07-20T12:26:25;66068.63;;;24.38;48.87
41636;BME280;27623;51.966;4.602;2023-07-20T12:28:51;66054.44;;;24.44;49.90
41636;BME280;27623;51.966;4.602;2023-07-20T12:31:19;66034.91;;;24.24;49.30
41636;BME280;27623;51.966;4.602;2023-07-20T12:33:46;66022.44;;;24.01;50.09
41636;BME280;27623;51.966;4.602;2023-07-20T12:36:11;65981.03;;;23.72;50.31
41636;BME280;27623;51.966;4.602;2023-07-20T12:38:37;65935.59;;;23.61;48.67
41636;BME280;27623;51.966;4.602;2023-07-20T12:41:03;65906.38;;;23.44;51.55
41636;BME280;27623;51.966;4.602;2023-07-20T12:43:29;65913.50;;;23.34;53.99
41636;BME280;27623;51.966;4.602;2023-07-20T12:45:55;65901.53;;;23.25;53.84
41636;BME280;27623;51.966;4.602;2023-07-20T12:48:20;65874.47;;;23.17;53.66
41636;BME280;27623;51.966;4.602;2023-07-20T12:50:46;65848.47;;;23.17;52.67
41636;BME280;27623;51.966;4.602;2023-07-20T12:53:11;65864.56;;;23.25;50.62
41636;BME280;27623;51.966;4.602;2023-07-20T12:55:37;65901.53;;;23.25;52.26
41636;BME280;27623;51.966;4.602;2023-07-20T12:58:03;65886.22;;;23.30;52.20
41636;BME280;27623;51.966;4.602;2023-07-20T13:00:28;65892.31;;;23.36;50.45
41636;BME280;27623;51.966;4.602;2023-07-20T13:02:54;65921.81;;;23.42;50.18
41636;BME280;27623;51.966;4.602;2023-07-20T13:05:22;65941.59;;;23.50;52.05
41636;BME280;27623;51.966;4.602;2023-07-20T13:07:47;65914.88;;;23.47;53.71
41636;BME280;27623;51.966;4.602;2023-07-20T13:10:12;65906.44;;;23.37;52.65
41636;BME280;27623;51.966;4.602;2023-07-20T13:12:38;65907.84;;;23.26;53.17
41636;BME280;27623;51.966;4.602;2023-07-20T13:15:05;65882.81;;;23.18;54.50